Time;durP1;ratioP1;P1;durP2;ratioP2;P2;SDS_P1;SDS_P2;PMS_P1;PMS_P2;Temp;Humidity;BMP_temperature;BMP_pressure;BME280_temperature;BME280_humidity;BME280_pressure;Samples;Min_cycle;Max_cycle;Signal;HPM_P1;HPM_P2
2021/12/20 00:00:14;;;;;;;30.83;15.60;;;5.10;99.90;;;;;;4992649;28;20382;-53
2021/12/20 00:02:42;;;;;;;32.00;15.73;;;5.10;99.90;;;;;;4990349;28;20389;-53
2021/12/20 00:05:08;;;;;;;33.38;16.23;;;5.20;99.90;;;;;;4998615;28;20393;-53
2021/12/20 00:07:33;;;;;;;36.50;16.05;;;5.10;99.90;;;;;;5009723;28;20408;-53
2021/12/20 00:09:59;;;;;;;35.03;15.65;;;5.10;99.90;;;;;;5010319;28;20395;-53
2021/12/20 00:12:25;;;;;;;34.23;16.70;;;5.00;99.90;;;;;;5010377;28;20385;-53
2021/12/20 00:14:50;;;;;;;34.45;16.25;;;5.00;99.90;;;;;;5008166;28;20487;-53
2021/12/20 00:17:16;;;;;;;37.80;17.17;;;6.40;99.90;;;;;;5010724;28;20888;-53
2021/12/20 00:19:41;;;;;;;36.95;17.52;;;4.80;99.90;;;;;;5009812;28;20389;-53
2021/12/20 00:22:07;;;;;;;37.83;18.20;;;4.70;99.90;;;;;;5010076;28;20403;-53
2021/12/20 00:24:33;;;;;;;36.70;17.30;;;4.70;99.90;;;;;;5009401;28;20490;-53
2021/12/20 00:26:59;;;;;;;38.20;18.45;;;4.60;99.90;;;;;;5009950;28;20417;-53
2021/12/20 00:29:24;;;;;;;39.58;17.85;;;4.60;99.90;;;;;;5009854;28;20947;-55
2021/12/20 00:31:50;;;;;;;38.60;18.50;;;4.70;99.90;;;;;;4997560;28;20410;-53
2021/12/20 00:34:16;;;;;;;39.20;18.35;;;4.60;99.90;;;;;;5009868;28;20450;-53
2021/12/20 00:36:41;;;;;;;41.80;19.37;;;4.60;99.90;;;;;;5008912;28;20393;-53
2021/12/20 00:41:51;;;;;;;40.83;18.98;;;4.60;99.90;;;;;;5007492;28;20411;-53
2021/12/20 00:44:17;;;;;;;42.57;20.30;;;4.70;99.90;;;;;;5000578;28;20779;-53
2021/12/20 00:46:43;;;;;;;39.53;19.30;;;4.70;99.90;;;;;;4989664;28;20441;-53
2021/12/20 00:49:08;;;;;;;34.10;18.30;;;4.70;99.90;;;;;;4990202;28;20406;-54
2021/12/20 00:51:34;;;;;;;42.80;18.05;;;4.70;99.90;;;;;;4989607;28;20419;-53
2021/12/20 00:54:00;;;;;;;36.03;17.90;;;4.90;99.90;;;;;;4990159;28;20465;-54
2021/12/20 00:56:25;;;;;;;39.45;17.90;;;4.80;99.90;;;;;;4990499;28;20386;-54
2021/12/20 00:58:51;;;;;;;38.27;19.27;;;4.80;99.90;;;;;;4989482;28;20387;-53
2021/12/20 01:01:17;;;;;;;40.00;18.55;;;4.80;99.90;;;;;;4990072;28;20399;-54
2021/12/20 01:03:42;;;;;;;38.35;17.88;;;4.90;99.90;;;;;;4989388;28;20422;-53
2021/12/20 01:06:08;;;;;;;36.73;17.40;;;4.90;99.90;;;;;;4989810;28;20391;-53
2021/12/20 01:08:37;;;;;;;41.72;18.17;;;5.00;99.90;;;;;;4994614;28;20430;-53
2021/12/20 01:11:03;;;;;;;40.15;17.83;;;5.10;99.90;;;;;;5005037;28;20426;-53
2021/12/20 01:13:30;;;;;;;36.10;18.37;;;5.20;99.90;;;;;;4990135;28;20405;-53
2021/12/20 01:15:59;;;;;;;38.45;18.02;;;5.30;99.90;;;;;;5005535;28;20398;-53
2021/12/20 01:18:25;;;;;;;36.10;17.23;;;5.30;99.90;;;;;;4996076;28;20803;-53
2021/12/20 01:20:51;;;;;;;35.13;16.70;;;5.30;99.90;;;;;;5001793;28;20391;-53
2021/12/20 01:23:18;;;;;;;39.43;18.43;;;5.20;99.90;;;;;;4993709;28;20786;-54
2021/12/20 01:25:44;;;;;;;34.95;16.65;;;5.20;99.90;;;;;;4993227;28;20450;-53
2021/12/20 01:28:10;;;;;;;36.40;17.05;;;5.20;99.90;;;;;;4993406;28;20536;-53
2021/12/20 01:30:37;;;;;;;37.20;17.20;;;5.30;99.90;;;;;;4992947;28;20461;-53
2021/12/20 01:33:07;;;;;;;36.65;18.00;;;5.40;99.90;;;;;;4993669;28;20902;-53
2021/12/20 01:35:33;;;;;;;35.15;17.30;;;5.40;99.90;;;;;;4993305;28;20395;-53
2021/12/20 01:37:58;;;;;;;37.20;17.25;;;5.40;99.90;;;;;;4992900;28;20413;-53
2021/12/20 01:40:24;;;;;;;32.73;16.07;;;6.30;99.90;;;;;;4993657;28;20379;-54
2021/12/20 01:42:55;;;;;;;36.90;16.05;;;5.30;99.90;;;;;;4992879;28;20424;-53
2021/12/20 01:45:23;;;;;;;35.47;16.55;;;5.30;99.90;;;;;;4993860;28;20809;-54
2021/12/20 01:47:59;;;;;;;34.43;15.97;;;5.30;99.90;;;;;;5004448;28;20409;-53
2021/12/20 01:50:40;;;;;;;33.58;16.58;;;5.20;99.90;;;;;;4993206;28;20464;-54
2021/12/20 01:53:08;;;;;;;34.40;15.88;;;5.20;99.90;;;;;;4993304;28;20456;-54
2021/12/20 01:55:34;;;;;;;37.60;17.20;;;5.00;99.90;;;;;;4992927;28;20383;-53
2021/12/20 01:58:00;;;;;;;33.28;15.30;;;5.10;99.90;;;;;;4992498;28;20856;-53
2021/12/20 02:00:27;;;;;;;32.42;15.73;;;5.00;99.90;;;;;;4993075;28;20393;-54
2021/12/20 02:02:58;;;;;;;36.40;15.52;;;5.00;99.90;;;;;;4992149;28;20387;-54
2021/12/20 02:05:48;;;;;;;38.83;16.15;;;5.20;99.90;;;;;;5010432;28;20757;-53
2021/12/20 02:08:19;;;;;;;38.10;16.50;;;5.10;99.90;;;;;;5001429;28;20422;-54
2021/12/20 02:10:45;;;;;;;36.50;17.42;;;5.00;99.90;;;;;;4992443;28;20378;-53
2021/12/20 02:13:15;;;;;;;34.00;16.70;;;5.00;99.90;;;;;;4993023;28;20378;-54
2021/12/20 02:15:41;;;;;;;35.90;16.83;;;5.00;99.90;;;;;;4992254;28;20479;-53
2021/12/20 02:18:06;;;;;;;36.55;16.95;;;5.00;99.90;;;;;;4992841;28;20477;-53
2021/12/20 02:20:34;;;;;;;31.20;15.70;;;5.00;99.90;;;;;;4993118;28;20396;-53
2021/12/20 02:23:00;;;;;;;40.23;17.13;;;5.10;99.90;;;;;;4992193;28;20511;-53
2021/12/20 02:25:28;;;;;;;35.70;16.17;;;5.10;99.90;;;;;;4992926;28;20401;-54
2021/12/20 02:27:54;;;;;;;33.00;15.98;;;5.00;99.90;;;;;;4991837;28;20418;-54
2021/12/20 02:38:30;;;;;;;35.25;16.13;;;5.10;99.90;;;;;;4992180;28;20890;-53
2021/12/20 02:41:12;;;;;;;34.33;16.63;;;5.20;99.90;;;;;;4991850;28;20864;-53
2021/12/20 02:43:41;;;;;;;39.67;18.40;;;5.30;99.90;;;;;;4991456;28;20429;-53
2021/12/20 02:47:06;;;;;;;37.78;17.80;;;5.10;99.90;;;;;;4992513;28;20398;-54
2021/12/20 02:49:23;;;;;;;38.43;17.40;;;5.00;99.90;;;;;;4989252;28;20911;-54
2021/12/20 02:51:51;;;;;;;37.35;17.73;;;5.10;99.90;;;;;;4991611;28;20406;-53
2021/12/20 02:54:20;;;;;;;38.10;17.67;;;5.10;99.90;;;;;;4992239;28;20390;-54
2021/12/20 02:56:52;;;;;;;40.00;18.30;;;5.10;99.90;;;;;;4991778;28;20490;-53
2021/12/20 02:59:18;;;;;;;41.47;18.75;;;5.20;99.90;;;;;;4992279;28;20522;-54
2021/12/20 03:01:53;;;;;;;41.13;17.50;;;5.20;99.90;;;;;;4998640;28;20382;-53
2021/12/20 03:04:19;;;;;;;41.88;18.40;;;5.20;99.90;;;;;;4992554;28;20798;-54
2021/12/20 03:06:48;;;;;;;38.28;17.92;;;5.30;99.90;;;;;;4991283;28;20469;-53
2021/12/20 03:09:17;;;;;;;38.27;18.00;;;5.20;99.90;;;;;;4991991;28;20411;-53
2021/12/20 03:11:49;;;;;;;37.55;17.58;;;5.30;99.90;;;;;;4991198;28;20393;-53
2021/12/20 03:14:22;;;;;;;41.35;18.67;;;5.50;99.90;;;;;;4991893;28;20430;-54
2021/12/20 03:16:47;;;;;;;40.05;17.25;;;5.30;99.90;;;;;;4991196;28;20387;-53
2021/12/20 03:19:22;;;;;;;42.17;17.63;;;5.20;99.90;;;;;;4991903;28;20864;-54
2021/12/20 03:21:48;;;;;;;31.93;16.63;;;5.20;99.90;;;;;;4990983;28;20396;-54
2021/12/20 03:24:14;;;;;;;42.47;17.47;;;5.10;99.90;;;;;;4991506;28;20414;-53
2021/12/20 03:26:58;;;;;;;37.35;17.45;;;5.20;99.90;;;;;;4991001;28;20835;-53
2021/12/20 03:29:23;;;;;;;39.40;17.07;;;5.30;99.90;;;;;;4991705;28;20433;-53
2021/12/20 03:31:50;;;;;;;39.90;17.90;;;5.30;99.90;;;;;;4990627;28;20848;-54
2021/12/20 03:34:19;;;;;;;40.45;17.00;;;5.20;99.90;;;;;;4991397;28;20379;-54
2021/12/20 03:36:44;;;;;;;39.83;17.50;;;5.30;99.90;;;;;;4997100;28;20953;-53
2021/12/20 03:39:10;;;;;;;39.45;18.30;;;5.30;99.90;;;;;;5008751;28;20499;-53
2021/12/20 03:41:37;;;;;;;37.70;16.88;;;5.30;99.90;;;;;;4991667;28;20840;-53
2021/12/20 03:44:04;;;;;;;37.33;16.23;;;5.30;99.90;;;;;;5002301;28;20392;-53
2021/12/20 03:46:30;;;;;;;39.83;17.50;;;5.20;99.90;;;;;;5010862;28;20381;-53
2021/12/20 03:48:55;;;;;;;39.85;17.83;;;5.10;99.90;;;;;;5010057;28;21098;-53
2021/12/20 03:51:21;;;;;;;45.83;18.70;;;5.10;99.90;;;;;;5010723;28;20456;-53
2021/12/20 03:53:47;;;;;;;40.47;17.83;;;5.00;99.90;;;;;;5009995;28;20853;-53
2021/12/20 03:56:18;;;;;;;41.83;19.20;;;5.10;99.90;;;;;;5010770;28;20921;-53
2021/12/20 03:58:44;;;;;;;41.05;18.40;;;5.10;99.90;;;;;;5010060;28;20406;-53
2021/12/20 04:01:17;;;;;;;41.95;17.38;;;5.10;99.90;;;;;;5010624;28;20850;-53
2021/12/20 04:03:43;;;;;;;38.30;17.92;;;5.10;99.90;;;;;;5008964;28;20468;-53
2021/12/20 04:06:11;;;;;;;39.22;17.85;;;5.20;99.90;;;;;;5010258;28;20466;-53
2021/12/20 04:08:38;;;;;;;43.95;18.42;;;5.20;99.90;;;;;;5010297;28;20428;-53
2021/12/20 04:11:04;;;;;;;44.60;18.67;;;5.10;99.90;;;;;;5010019;28;20384;-53
2021/12/20 04:13:30;;;;;;;44.27;19.03;;;5.00;99.90;;;;;;5010516;28;20381;-53
2021/12/20 04:15:56;;;;;;;43.95;19.02;;;5.80;99.90;;;;;;5009801;28;21310;-53
2021/12/20 04:18:23;;;;;;;43.63;19.43;;;4.60;99.90;;;;;;5010288;28;20389;-55
2021/12/20 04:20:49;;;;;;;47.20;19.17;;;4.60;99.90;;;;;;5009632;28;20389;-53
2021/12/20 04:23:15;;;;;;;48.50;19.60;;;5.60;99.90;;;;;;5009856;28;20766;-53
2021/12/20 04:25:41;;;;;;;48.78;21.10;;;4.70;99.90;;;;;;5009621;28;20854;-53
2021/12/20 04:28:06;;;;;;;44.53;19.75;;;4.60;99.90;;;;;;5009879;28;20496;-53
2021/12/20 04:30:33;;;;;;;44.80;20.30;;;4.70;99.90;;;;;;5009622;28;20393;-53
2021/12/20 04:32:59;;;;;;;48.37;20.00;;;4.60;99.90;;;;;;5008096;28;20472;-55
2021/12/20 04:35:25;;;;;;;43.20;19.33;;;6.10;99.90;;;;;;5010471;28;20381;-53
2021/12/20 04:37:51;;;;;;;41.05;19.70;;;4.70;99.90;;;;;;5009437;28;20400;-55
2021/12/20 04:40:20;;;;;;;45.38;20.08;;;4.80;99.90;;;;;;5009831;28;20397;-55
2021/12/20 04:42:52;;;;;;;42.35;18.73;;;4.80;99.90;;;;;;5009117;28;20381;-53
2021/12/20 04:45:18;;;;;;;41.15;18.38;;;4.90;99.90;;;;;;5010137;28;20469;-53
2021/12/20 04:47:44;;;;;;;41.45;18.05;;;5.00;99.90;;;;;;5008787;28;20425;-55
2021/12/20 04:50:10;;;;;;;45.13;19.52;;;4.90;99.90;;;;;;5009421;28;20446;-54
2021/12/20 04:52:36;;;;;;;45.60;19.00;;;4.90;99.90;;;;;;5009758;28;20401;-53
2021/12/20 04:55:04;;;;;;;44.72;20.33;;;4.90;99.90;;;;;;5007521;28;20738;-53
2021/12/20 04:57:30;;;;;;;46.60;19.58;;;4.80;99.90;;;;;;5009771;28;20381;-53
2021/12/20 04:59:55;;;;;;;47.15;20.75;;;4.80;99.90;;;;;;5009208;28;20376;-53
2021/12/20 05:02:21;;;;;;;44.87;19.50;;;5.30;99.90;;;;;;5009338;28;20404;-53
2021/12/20 05:04:47;;;;;;;44.53;18.95;;;4.80;99.90;;;;;;5008892;28;20376;-55
2021/12/20 05:07:12;;;;;;;45.20;20.00;;;4.80;99.90;;;;;;5010008;28;20400;-53
2021/12/20 05:09:39;;;;;;;42.65;19.33;;;4.80;99.90;;;;;;5009212;28;20902;-56
2021/12/20 05:12:14;;;;;;;39.75;18.42;;;4.70;99.90;;;;;;5008934;28;20485;-53
2021/12/20 05:14:41;;;;;;;40.25;18.55;;;4.80;99.90;;;;;;5009737;28;20475;-53
2021/12/20 05:17:09;;;;;;;58.90;24.30;;;4.90;99.90;;;;;;5009029;28;20404;-53
2021/12/20 05:19:34;;;;;;;49.45;22.00;;;4.90;99.90;;;;;;5009373;28;20395;-53
2021/12/20 05:22:00;;;;;;;48.45;20.58;;;4.90;99.90;;;;;;5008907;28;20446;-53
2021/12/20 05:24:26;;;;;;;45.25;19.15;;;5.00;99.90;;;;;;5009048;28;20423;-53
2021/12/20 05:26:52;;;;;;;41.97;19.60;;;4.90;99.90;;;;;;5000588;28;20486;-53
2021/12/20 05:29:18;;;;;;;42.83;18.63;;;5.00;99.90;;;;;;4994058;28;20449;-53
2021/12/20 05:31:43;;;;;;;45.80;20.13;;;5.00;99.90;;;;;;4989079;28;20812;-53
2021/12/20 05:34:09;;;;;;;41.85;18.02;;;4.90;99.90;;;;;;4989398;28;20383;-53
2021/12/20 05:36:35;;;;;;;45.60;19.58;;;4.90;99.90;;;;;;4994919;28;20400;-53
2021/12/20 05:39:00;;;;;;;40.53;18.40;;;5.00;99.90;;;;;;5009030;28;20380;-53
2021/12/20 05:41:26;;;;;;;44.53;19.30;;;5.00;99.90;;;;;;5001870;28;20901;-53
2021/12/20 05:43:52;;;;;;;42.73;19.13;;;5.10;99.90;;;;;;4988926;28;20481;-53
2021/12/20 05:46:17;;;;;;;49.30;18.77;;;5.00;99.90;;;;;;4989702;28;20417;-53
2021/12/20 05:48:43;;;;;;;46.38;19.35;;;5.00;99.90;;;;;;4987679;28;20493;-53
2021/12/20 05:51:09;;;;;;;40.30;18.33;;;4.90;99.90;;;;;;4989123;28;20775;-53
2021/12/20 05:53:35;;;;;;;45.47;18.88;;;4.90;99.90;;;;;;4988723;28;20752;-53
2021/12/20 05:56:00;;;;;;;41.55;17.70;;;5.00;99.90;;;;;;4988001;28;20394;-53
2021/12/20 05:58:26;;;;;;;39.80;18.53;;;5.10;99.90;;;;;;4997765;28;20984;-53
2021/12/20 06:00:52;;;;;;;47.58;18.30;;;5.10;99.90;;;;;;5003492;28;20410;-53
2021/12/20 06:03:18;;;;;;;45.80;19.20;;;5.10;99.90;;;;;;4992169;28;20546;-53
2021/12/20 06:05:44;;;;;;;43.80;18.73;;;5.00;99.90;;;;;;4992194;28;20473;-53
2021/12/20 06:08:10;;;;;;;41.00;17.73;;;5.00;99.90;;;;;;4992648;28;20486;-53
2021/12/20 06:10:36;;;;;;;44.80;19.70;;;4.90;99.90;;;;;;4992630;28;20416;-53
2021/12/20 06:13:05;;;;;;;45.63;19.35;;;4.90;99.90;;;;;;4996539;28;20408;-53
2021/12/20 06:15:31;;;;;;;44.10;18.30;;;4.90;99.90;;;;;;4998857;28;20530;-53
2021/12/20 06:17:57;;;;;;;43.58;18.92;;;4.90;99.90;;;;;;5004333;28;20401;-53
2021/12/20 06:20:23;;;;;;;41.25;18.08;;;4.90;99.90;;;;;;5003348;28;20396;-53
2021/12/20 06:22:49;;;;;;;41.13;17.93;;;5.90;99.90;;;;;;5011153;28;20405;-53
2021/12/20 06:25:17;;;;;;;41.95;19.10;;;4.90;99.90;;;;;;5011471;28;20465;-53
2021/12/20 06:27:43;;;;;;;43.00;17.88;;;4.90;99.90;;;;;;4993056;28;20815;-53
2021/12/20 06:30:10;;;;;;;37.97;16.80;;;4.90;99.90;;;;;;4991462;28;20528;-53
2021/12/20 06:32:37;;;;;;;43.90;18.70;;;5.00;99.90;;;;;;5005103;28;20386;-53
2021/12/20 06:35:05;;;;;;;41.70;19.00;;;4.90;99.90;;;;;;4991820;28;20374;-53
2021/12/20 06:37:31;;;;;;;45.65;18.60;;;4.90;99.90;;;;;;4999732;28;20511;-54
2021/12/20 06:39:57;;;;;;;38.92;17.45;;;4.90;99.90;;;;;;5011565;28;20419;-53
2021/12/20 06:42:23;;;;;;;41.40;18.50;;;4.90;99.90;;;;;;5012228;28;20405;-53
2021/12/20 06:44:48;;;;;;;42.95;18.20;;;4.90;99.90;;;;;;5011253;28;20788;-53
2021/12/20 06:47:15;;;;;;;38.57;16.60;;;5.00;99.90;;;;;;5012036;28;20376;-53
2021/12/20 06:49:41;;;;;;;38.35;16.05;;;5.10;99.90;;;;;;5011604;28;20459;-53
2021/12/20 06:52:06;;;;;;;42.83;17.00;;;5.30;99.90;;;;;;5010946;28;20796;-53
2021/12/20 06:54:32;;;;;;;39.10;19.03;;;5.20;99.90;;;;;;5009749;28;20487;-53
2021/12/20 06:56:58;;;;;;;41.83;19.42;;;5.30;99.90;;;;;;4999318;28;20422;-53
2021/12/20 06:59:24;;;;;;;40.08;17.75;;;6.00;99.90;;;;;;4992268;28;20411;-53
2021/12/20 07:01:50;;;;;;;37.13;18.27;;;5.30;99.90;;;;;;4996385;28;20458;-53
2021/12/20 07:04:16;;;;;;;40.70;20.05;;;5.40;99.90;;;;;;5005351;28;20396;-53
2021/12/20 07:06:42;;;;;;;40.63;18.25;;;5.30;99.90;;;;;;5006812;28;20486;-53
2021/12/20 07:09:09;;;;;;;42.58;19.15;;;5.30;99.90;;;;;;5010777;28;20502;-54
2021/12/20 07:11:34;;;;;;;42.50;19.33;;;5.40;99.90;;;;;;5007609;28;20392;-53
2021/12/20 07:14:01;;;;;;;39.93;18.50;;;5.40;99.90;;;;;;5009527;28;20940;-54
2021/12/20 07:16:31;;;;;;;39.20;17.80;;;5.70;99.90;;;;;;5008879;28;20435;-53
2021/12/20 07:18:57;;;;;;;41.42;20.17;;;5.40;99.90;;;;;;4995557;28;20389;-53
2021/12/20 07:21:22;;;;;;;36.50;17.70;;;5.50;99.90;;;;;;4991433;28;20729;-53
2021/12/20 07:23:48;;;;;;;42.33;20.77;;;5.40;99.90;;;;;;4992710;28;20476;-53
2021/12/20 07:26:14;;;;;;;47.75;21.27;;;5.40;99.90;;;;;;4992124;28;20890;-53
2021/12/20 07:28:41;;;;;;;52.40;24.20;;;5.50;99.90;;;;;;4991539;28;20417;-53
2021/12/20 07:31:08;;;;;;;42.13;18.93;;;5.90;99.90;;;;;;5006110;28;20415;-55
2021/12/20 07:33:33;;;;;;;36.60;17.55;;;5.60;99.90;;;;;;5010872;28;20443;-53
2021/12/20 07:35:59;;;;;;;37.00;17.80;;;5.50;99.90;;;;;;5008557;28;20420;-53
2021/12/20 07:38:24;;;;;;;34.60;17.50;;;5.50;99.90;;;;;;5010590;28;20866;-53
2021/12/20 07:40:51;;;;;;;39.23;17.70;;;5.50;99.90;;;;;;5009704;28;20447;-53
2021/12/20 07:43:18;;;;;;;36.88;17.10;;;5.60;99.90;;;;;;5011252;28;20381;-53
2021/12/20 07:45:47;;;;;;;38.17;17.20;;;5.50;99.90;;;;;;5010164;28;20472;-53
2021/12/20 07:48:16;;;;;;;36.50;18.07;;;5.50;99.90;;;;;;5004665;28;20454;-53
2021/12/20 07:50:42;;;;;;;36.97;17.70;;;5.40;99.90;;;;;;5007675;28;20412;-54
2021/12/20 07:53:08;;;;;;;40.67;17.90;;;5.40;99.90;;;;;;5009780;28;20393;-53
2021/12/20 07:55:34;;;;;;;39.35;18.70;;;5.50;99.90;;;;;;5009480;28;20375;-53
2021/12/20 07:58:00;;;;;;;38.20;17.75;;;5.60;99.90;;;;;;5004285;28;20549;-53
2021/12/20 08:00:27;;;;;;;43.00;19.23;;;5.70;99.90;;;;;;5003746;28;20480;-54
2021/12/20 08:02:56;;;;;;;44.13;19.23;;;5.80;99.90;;;;;;4992027;28;20386;-53
2021/12/20 08:05:22;;;;;;;45.88;18.77;;;5.90;99.90;;;;;;4990326;28;20390;-53
2021/12/20 08:07:50;;;;;;;44.90;20.10;;;6.00;99.90;;;;;;5001431;28;20416;-53
2021/12/20 08:10:27;;;;;;;44.58;19.88;;;6.00;99.90;;;;;;5010044;28;20400;-53
2021/12/20 08:12:53;;;;;;;40.97;19.73;;;6.10;99.90;;;;;;5005711;28;20496;-53
2021/12/20 08:15:21;;;;;;;38.33;18.35;;;6.00;99.90;;;;;;5007449;28;20398;-53
2021/12/20 08:17:48;;;;;;;37.97;16.75;;;6.10;99.90;;;;;;5007976;28;20404;-53
2021/12/20 08:20:13;;;;;;;38.83;18.10;;;6.00;99.90;;;;;;5006563;28;20503;-53
2021/12/20 08:22:40;;;;;;;33.20;17.30;;;5.90;99.90;;;;;;5001948;28;20473;-53
2021/12/20 08:25:07;;;;;;;36.27;17.40;;;5.90;99.90;;;;;;4989437;28;21081;-53
2021/12/20 08:27:33;;;;;;;38.50;16.63;;;6.00;99.90;;;;;;4990229;28;20390;-53
2021/12/20 08:29:58;;;;;;;36.90;17.13;;;6.10;99.90;;;;;;4989611;28;20429;-53
2021/12/20 08:32:26;;;;;;;36.57;18.00;;;6.00;99.90;;;;;;4990208;28;20379;-53
2021/12/20 08:34:52;;;;;;;38.80;18.60;;;6.10;99.90;;;;;;4989870;28;20465;-54
2021/12/20 08:37:18;;;;;;;36.25;17.88;;;6.00;99.90;;;;;;5005034;28;20387;-53
2021/12/20 08:39:44;;;;;;;35.67;18.43;;;6.10;99.90;;;;;;4990292;28;20429;-53
2021/12/20 08:42:09;;;;;;;40.10;18.38;;;6.20;99.90;;;;;;4999398;28;20404;-53
2021/12/20 08:44:35;;;;;;;32.47;16.17;;;6.90;99.90;;;;;;5009176;28;20735;-54
2021/12/20 08:47:02;;;;;;;37.45;17.60;;;6.50;99.90;;;;;;4999203;28;20426;-53
2021/12/20 08:49:28;;;;;;;34.92;17.08;;;6.50;99.90;;;;;;4990066;28;20411;-53
2021/12/20 08:51:55;;;;;;;40.30;18.40;;;6.50;99.90;;;;;;4988900;28;20741;-51
2021/12/20 08:54:24;;;;;;;32.55;16.50;;;6.60;99.90;;;;;;4990169;28;20387;-53
2021/12/20 08:56:49;;;;;;;35.78;18.00;;;6.70;99.90;;;;;;4994262;28;20429;-52
2021/12/20 08:59:15;;;;;;;35.75;18.33;;;6.80;99.90;;;;;;5009241;28;20872;-53
2021/12/20 09:01:41;;;;;;;35.47;18.40;;;6.70;99.90;;;;;;5004629;28;20401;-52
2021/12/20 09:04:07;;;;;;;36.33;18.02;;;6.60;99.90;;;;;;5001618;28;20404;-52
2021/12/20 09:06:38;;;;;;;36.17;18.37;;;6.70;99.90;;;;;;5007940;28;20408;-52
2021/12/20 09:09:05;;;;;;;37.25;18.40;;;6.60;99.90;;;;;;4998868;28;20417;-53
2021/12/20 09:11:30;;;;;;;36.92;17.77;;;6.40;99.90;;;;;;4999118;28;20526;-52
2021/12/20 09:13:56;;;;;;;38.65;18.40;;;6.40;99.90;;;;;;5008050;28;20396;-52
2021/12/20 09:16:22;;;;;;;42.10;18.87;;;6.50;99.90;;;;;;5008057;28;20415;-52
2021/12/20 09:18:48;;;;;;;35.15;17.95;;;6.60;99.90;;;;;;5001636;28;20401;-52
2021/12/20 09:21:15;;;;;;;42.47;19.33;;;6.50;99.90;;;;;;4995294;28;20417;-52
2021/12/20 09:23:41;;;;;;;33.60;16.98;;;6.40;99.90;;;;;;5004310;28;20458;-54
2021/12/20 09:26:07;;;;;;;37.28;18.10;;;6.40;99.90;;;;;;4990856;28;20402;-52
2021/12/20 09:28:34;;;;;;;36.25;18.65;;;7.20;99.90;;;;;;4989458;28;20422;-52
2021/12/20 09:31:00;;;;;;;41.75;17.92;;;6.30;99.90;;;;;;5003636;28;20389;-52
2021/12/20 09:33:26;;;;;;;37.00;18.40;;;6.20;99.90;;;;;;5009281;28;20385;-52
2021/12/20 09:35:53;;;;;;;40.60;19.88;;;6.30;99.90;;;;;;5005078;28;20952;-52
2021/12/20 09:38:20;;;;;;;45.53;21.33;;;6.20;99.90;;;;;;5007775;28;20416;-52
2021/12/20 09:43:49;;;;;;;40.03;20.00;;;6.10;99.90;;;;;;4984499;28;20408;-52
2021/12/20 09:46:17;;;;;;;43.30;20.38;;;6.10;99.90;;;;;;5007051;28;20397;-52
2021/12/20 09:48:45;;;;;;;44.03;20.75;;;6.00;99.90;;;;;;5012368;28;20885;-52
2021/12/20 09:51:12;;;;;;;44.75;21.48;;;6.00;99.90;;;;;;5010660;28;20415;-52
2021/12/20 09:53:38;;;;;;;40.53;19.35;;;6.30;99.90;;;;;;5012496;28;20433;-52
2021/12/20 09:56:04;;;;;;;41.17;18.70;;;5.90;99.90;;;;;;5011227;28;20424;-53
2021/12/20 09:58:35;;;;;;;38.90;17.73;;;6.00;99.90;;;;;;5012449;28;20393;-53
2021/12/20 10:01:01;;;;;;;43.97;20.00;;;5.90;99.90;;;;;;5011192;28;20396;-52
2021/12/20 10:03:28;;;;;;;39.35;19.10;;;6.00;99.90;;;;;;5009004;28;20412;-52
2021/12/20 10:05:56;;;;;;;35.95;18.30;;;5.90;99.90;;;;;;5002311;28;20420;-52
2021/12/20 10:08:32;;;;;;;38.08;18.73;;;5.90;99.90;;;;;;4998229;28;20418;-52
2021/12/20 10:11:06;;;;;;;41.55;19.75;;;5.90;99.90;;;;;;5000218;28;20394;-52
2021/12/20 10:13:34;;;;;;;39.70;19.92;;;5.90;99.90;;;;;;4998035;28;20435;-53
2021/12/20 10:16:02;;;;;;;36.33;18.48;;;6.00;99.90;;;;;;5005375;28;20434;-52
2021/12/20 10:18:32;;;;;;;36.88;18.52;;;6.10;99.90;;;;;;5009149;28;20415;-52
2021/12/20 10:21:00;;;;;;;39.17;18.42;;;6.20;99.90;;;;;;5006652;28;20413;-53
2021/12/20 10:23:29;;;;;;;38.05;18.08;;;6.40;99.90;;;;;;5007642;28;20507;-52
2021/12/20 10:26:04;;;;;;;36.28;17.77;;;6.40;99.90;;;;;;5009446;28;20406;-52
2021/12/20 10:28:35;;;;;;;34.72;18.17;;;6.30;99.90;;;;;;5007234;28;20887;-52
2021/12/20 10:31:06;;;;;;;36.70;18.08;;;6.50;99.90;;;;;;5008764;28;20412;-52
2021/12/20 10:33:32;;;;;;;40.50;18.45;;;6.40;99.90;;;;;;5011590;28;20385;-52
2021/12/20 10:36:00;;;;;;;38.33;18.30;;;6.40;99.90;;;;;;5011213;28;20862;-52
2021/12/20 10:38:33;;;;;;;42.47;18.75;;;6.40;99.90;;;;;;5011508;28;20484;-52
2021/12/20 10:41:14;;;;;;;41.38;19.73;;;6.40;99.90;;;;;;5011079;28;20489;-52
2021/12/20 10:43:51;;;;;;;43.47;20.80;;;6.40;99.90;;;;;;5011790;28;20393;-52
2021/12/20 10:46:21;;;;;;;40.92;19.20;;;7.10;99.90;;;;;;5012045;28;20381;-53
2021/12/20 10:48:59;;;;;;;43.58;20.90;;;6.40;99.90;;;;;;5011077;28;20419;-52
2021/12/20 10:51:28;;;;;;;37.50;19.40;;;6.50;99.90;;;;;;5011772;28;20476;-53
2021/12/20 10:53:59;;;;;;;41.70;21.03;;;6.80;99.90;;;;;;5010968;28;20385;-52
2021/12/20 10:56:25;;;;;;;43.47;18.73;;;7.00;99.90;;;;;;5011608;28;20471;-52
2021/12/20 10:58:51;;;;;;;37.60;18.05;;;7.30;99.90;;;;;;5010864;28;20385;-52
2021/12/20 11:02:12;;;;;;;38.67;19.63;;;7.20;99.90;;;;;;5011383;28;20411;-52
2021/12/20 11:04:45;;;;;;;35.78;17.55;;;7.50;99.90;;;;;;4991815;28;20394;-52
2021/12/20 11:09:39;;;;;;;25.90;12.87;;;8.10;99.90;;;;;;5011242;28;20423;-52
2021/12/20 11:12:08;;;;;;;30.57;15.60;;;8.10;99.90;;;;;;5010584;28;20428;-52
2021/12/20 11:14:40;;;;;;;27.73;11.60;;;8.20;99.90;;;;;;5011317;28;20385;-53
2021/12/20 11:17:08;;;;;;;19.88;10.52;;;8.40;99.90;;;;;;5010821;28;20411;-54
2021/12/20 11:19:35;;;;;;;22.23;10.17;;;8.80;99.90;;;;;;5011166;28;20440;-55
2021/12/20 11:22:11;;;;;;;16.55;8.43;;;8.90;99.90;;;;;;5010557;28;20491;-55
2021/12/20 11:24:44;;;;;;;21.45;9.75;;;8.90;99.90;;;;;;5010086;28;20412;-55
2021/12/20 11:27:14;;;;;;;23.48;9.35;;;9.10;99.90;;;;;;5010250;28;20879;-56
2021/12/20 11:29:41;;;;;;;16.30;8.02;;;9.40;99.90;;;;;;5010545;28;20409;-55
2021/12/20 11:32:09;;;;;;;19.13;8.10;;;9.20;99.90;;;;;;5010747;28;20417;-55
2021/12/20 11:34:37;;;;;;;17.58;8.70;;;9.20;99.90;;;;;;5010395;28;20392;-56
2021/12/20 11:37:03;;;;;;;18.15;8.88;;;9.30;99.90;;;;;;5009791;28;20396;-55
2021/12/20 11:39:28;;;;;;;19.35;8.30;;;9.30;99.90;;;;;;5010925;28;20389;-55
2021/12/20 11:41:55;;;;;;;19.60;9.20;;;9.50;99.90;;;;;;5010118;28;20388;-54
2021/12/20 11:44:29;;;;;;;26.02;9.68;;;9.70;99.90;;;;;;5010543;28;20467;-54
2021/12/20 11:47:23;;;;;;;19.98;9.57;;;9.50;99.90;;;;;;5010190;28;20384;-55
2021/12/20 11:50:05;;;;;;;36.33;14.95;;;9.60;99.90;;;;;;5009959;28;20773;-54
2021/12/20 11:52:41;;;;;;;21.00;9.90;;;9.60;99.90;;;;;;5010439;28;20409;-55
2021/12/20 11:55:24;;;;;;;20.63;10.20;;;9.30;99.90;;;;;;5010063;28;20527;-55
2021/12/20 11:57:54;;;;;;;21.55;9.80;;;9.30;99.90;;;;;;5010114;28;20381;-55
2021/12/20 12:00:21;;;;;;;21.17;10.40;;;9.30;99.90;;;;;;5010068;28;20490;-55
2021/12/20 12:02:54;;;;;;;23.20;10.25;;;9.20;99.90;;;;;;5010205;28;20393;-54
2021/12/20 12:05:34;;;;;;;23.45;10.90;;;9.30;99.90;;;;;;5010516;28;20435;-54
2021/12/20 12:08:37;;;;;;;21.60;10.48;;;9.00;99.90;;;;;;5009704;28;20503;-54
2021/12/20 12:11:08;;;;;;;21.35;10.75;;;8.90;99.90;;;;;;5009412;28;20393;-52
2021/12/20 12:13:45;;;;;;;28.15;12.43;;;8.60;99.90;;;;;;5010255;28;20861;-52
2021/12/20 12:16:26;;;;;;;22.73;10.07;;;8.00;99.90;;;;;;5009424;28;20385;-52
2021/12/20 12:18:54;;;;;;;25.60;11.75;;;7.70;99.90;;;;;;5009533;28;20440;-52
2021/12/20 12:21:32;;;;;;;23.05;9.40;;;7.60;99.90;;;;;;5009928;28;20385;-52
2021/12/20 12:24:03;;;;;;;23.40;10.50;;;7.40;99.90;;;;;;5008726;28;20471;-52
2021/12/20 12:26:32;;;;;;;21.20;10.80;;;7.40;99.90;;;;;;5010175;28;20388;-53
2021/12/20 12:28:58;;;;;;;19.60;9.32;;;7.40;99.90;;;;;;5009138;28;20413;-52
2021/12/20 12:31:24;;;;;;;18.77;8.60;;;7.10;99.90;;;;;;5010031;28;20743;-52
2021/12/20 12:34:09;;;;;;;17.38;8.68;;;6.90;99.90;;;;;;5009171;28;20857;-52
2021/12/20 12:36:41;;;;;;;19.80;8.52;;;7.00;99.90;;;;;;5009990;28;20464;-52
2021/12/20 12:39:18;;;;;;;21.58;9.80;;;6.70;99.90;;;;;;5008932;28;20435;-53
2021/12/20 12:41:50;;;;;;;23.58;11.13;;;6.70;99.90;;;;;;5009790;28;20377;-52
2021/12/20 12:44:15;;;;;;;23.25;10.10;;;7.00;99.90;;;;;;5009473;28;20453;-53
2021/12/20 12:46:41;;;;;;;24.93;10.40;;;7.20;99.90;;;;;;5009877;28;20389;-53
2021/12/20 12:49:22;;;;;;;22.60;9.23;;;7.30;99.90;;;;;;5008831;28;20408;-52
2021/12/20 12:51:58;;;;;;;20.90;10.63;;;7.20;99.90;;;;;;5009646;28;20431;-53
2021/12/20 12:54:33;;;;;;;21.30;7.90;;;7.00;99.90;;;;;;5009470;28;20904;-53
2021/12/20 12:57:10;;;;;;;21.67;9.00;;;6.80;99.90;;;;;;5008784;28;20417;-53
2021/12/20 12:59:54;;;;;;;19.67;8.30;;;6.70;99.90;;;;;;5009277;28;20403;-54